createdAt,value
2022-09-01T04:07:19.965Z,22.72
2022-09-01T04:14:19.089Z,22.72
2022-09-01T07:44:21.927Z,27.15
2022-09-01T07:57:50.214Z,27.77
2022-09-01T08:03:57.825Z,27.49
2022-09-01T08:10:02.078Z,27.45
2022-09-01T08:16:16.894Z,28.05
2022-09-01T08:22:25.999Z,27.36
2022-09-01T08:28:38.073Z,27.74
2022-09-01T08:34:42.850Z,28.05
2022-09-01T08:40:58.261Z,28.76
2022-09-01T08:47:15.540Z,28.99
2022-09-01T08:53:41.689Z,28.65
2022-09-01T08:59:44.815Z,28.62
2022-09-01T09:06:25.410Z,29.39
2022-09-01T09:12:49.879Z,29.58
2022-09-01T09:19:08.872Z,29.13
2022-09-01T09:25:19.350Z,28.70
2022-09-01T09:31:50.455Z,29.16
2022-09-01T09:37:54.133Z,29.85
2022-09-01T09:44:22.799Z,29.64
2022-09-01T09:50:49.477Z,29.49
2022-09-01T09:57:18.650Z,29.06
2022-09-01T10:03:36.539Z,29.34
2022-09-01T10:09:44.280Z,28.89
2022-09-01T10:15:51.677Z,29.18
2022-09-01T10:22:04.570Z,28.95
2022-09-01T10:28:21.417Z,29.40
2022-09-01T10:34:26.142Z,29.33
2022-09-01T10:40:31.848Z,29.74
2022-09-01T10:46:41.906Z,29.59
2022-09-01T10:52:51.664Z,29.77
2022-09-01T10:59:32.803Z,29.82
2022-09-01T11:06:12.920Z,30.07
2022-09-01T11:12:50.313Z,30.06
2022-09-01T11:18:58.782Z,30.00
2022-09-01T11:25:40.631Z,29.75
2022-09-01T11:31:45.701Z,29.73
2022-09-01T11:37:57.389Z,29.92
2022-09-01T11:44:04.833Z,30.15
2022-09-01T11:50:36.820Z,30.33
2022-09-01T11:56:43.475Z,30.21
2022-09-01T12:02:51.274Z,29.75
2022-09-01T12:09:05.409Z,29.90
2022-09-01T12:15:27.428Z,30.21
2022-09-01T12:21:45.542Z,30.25
2022-09-01T12:27:54.035Z,30.14
2022-09-01T12:33:57.722Z,30.05
2022-09-01T12:40:05.122Z,29.96
2022-09-01T12:46:12.848Z,29.80
2022-09-01T12:52:29.785Z,29.73
2022-09-01T12:58:46.129Z,30.16
2022-09-01T13:04:53.107Z,30.34
2022-09-01T13:11:11.259Z,30.07
2022-09-01T13:17:15.193Z,30.19
2022-09-01T13:23:43.625Z,30.16
2022-09-01T13:29:57.516Z,29.82
2022-09-01T13:50:10.827Z,29.90
2022-09-01T13:56:15.777Z,29.93
2022-09-01T14:02:27.623Z,30.06
2022-09-01T14:08:34.439Z,29.72
2022-09-01T14:21:06.441Z,30.18
2022-09-01T14:27:45.506Z,29.94
2022-09-01T14:34:05.377Z,29.89
2022-09-01T14:40:16.310Z,29.55
2022-09-01T14:46:24.215Z,29.40
2022-09-01T14:52:30.626Z,29.50
2022-09-01T14:58:34.939Z,29.33
2022-09-01T15:04:38.883Z,29.24
2022-09-01T15:10:47.742Z,29.41
2022-09-01T15:16:51.464Z,29.18
2022-09-01T15:22:55.849Z,29.14
2022-09-01T15:29:00.713Z,29.31
2022-09-01T15:35:07.700Z,29.31
2022-09-01T15:41:38.185Z,28.84
2022-09-01T15:47:45.598Z,28.73
2022-09-01T15:53:59.486Z,28.84
2022-09-01T16:00:07.340Z,28.62
2022-09-01T16:06:23.238Z,28.19
2022-09-01T16:12:34.305Z,27.95
2022-09-01T16:25:22.790Z,27.64
2022-09-01T16:31:48.530Z,27.51
2022-09-01T16:38:12.535Z,27.28
2022-09-01T16:44:21.700Z,27.08
2022-09-01T16:50:54.643Z,26.95
2022-09-01T16:57:42.291Z,26.76
2022-09-01T17:04:30.909Z,26.54
2022-09-01T17:10:50.485Z,26.51
2022-09-01T17:16:55.381Z,26.37
2022-09-01T17:23:23.038Z,26.17
2022-09-01T17:30:22.911Z,26.03
2022-09-01T17:37:07.687Z,25.88
2022-09-01T17:43:48.202Z,25.86
2022-09-01T17:50:25.654Z,25.72
2022-09-01T17:56:37.196Z,25.71
2022-09-01T18:02:50.404Z,25.64
2022-09-01T18:09:03.331Z,25.51
2022-09-01T18:15:32.239Z,25.50
2022-09-01T18:21:49.460Z,25.44
2022-09-01T18:27:54.773Z,25.37
2022-09-01T18:34:20.037Z,25.31
2022-09-01T18:41:06.476Z,25.32
2022-09-01T18:47:29.709Z,25.37
2022-09-01T18:53:51.322Z,25.25
2022-09-01T19:00:18.110Z,25.18
2022-09-01T19:06:42.445Z,25.22
2022-09-01T19:12:59.919Z,25.17
2022-09-01T19:19:36.411Z,25.12
2022-09-01T19:25:42.804Z,25.01
2022-09-01T19:32:02.848Z,24.93
2022-09-01T19:38:10.370Z,24.90
2022-09-01T19:44:29.155Z,24.91
2022-09-01T19:50:54.569Z,24.94
2022-09-01T19:57:16.746Z,24.89
2022-09-01T20:03:27.075Z,24.83
2022-09-01T20:09:44.482Z,24.70
2022-09-01T20:15:54.904Z,24.75
2022-09-01T20:22:22.682Z,24.85
2022-09-01T20:28:45.502Z,24.69
2022-09-01T20:34:58.334Z,24.77
2022-09-01T20:41:13.518Z,24.83
2022-09-01T20:47:17.863Z,24.82
2022-09-01T20:53:49.522Z,24.89
2022-09-01T20:59:59.100Z,25.04
2022-09-01T21:06:27.714Z,24.94
2022-09-01T21:12:41.331Z,24.97
2022-09-01T21:19:21.680Z,24.95
2022-09-01T21:25:26.420Z,24.85
2022-09-01T21:31:47.369Z,24.81
2022-09-01T21:37:51.384Z,24.98
2022-09-01T21:44:05.715Z,24.82
2022-09-01T21:50:10.271Z,24.78
2022-09-01T21:56:13.941Z,24.69
2022-09-01T22:02:17.937Z,24.74
2022-09-01T22:08:22.541Z,24.68
2022-09-01T22:14:26.615Z,24.61
2022-09-01T22:20:32.008Z,24.48
2022-09-01T22:26:36.425Z,24.57
2022-09-01T22:32:42.063Z,24.48
2022-09-01T22:38:45.874Z,24.49
2022-09-01T22:44:48.343Z,24.39
2022-09-01T22:50:58.749Z,24.31
2022-09-01T22:57:02.383Z,24.25
2022-09-01T23:03:06.119Z,24.16
2022-09-01T23:09:11.354Z,24.09
2022-09-01T23:15:14.366Z,23.89
2022-09-01T23:21:21.763Z,23.82
2022-09-01T23:27:42.203Z,23.73
2022-09-01T23:33:49.451Z,23.58
2022-09-01T23:39:53.155Z,23.59
2022-09-01T23:45:57.421Z,23.66
2022-09-01T23:52:01.076Z,23.62
2022-09-01T23:58:03.487Z,23.49
